createdAt,value
2022-12-22T00:00:02.140Z,88341.00
2022-12-22T00:01:02.149Z,88339.00
2022-12-22T00:02:02.269Z,88339.00
2022-12-22T00:03:02.192Z,88341.00
2022-12-22T00:04:02.154Z,88335.00
2022-12-22T00:05:02.087Z,88331.00
2022-12-22T00:06:02.016Z,88326.00
2022-12-22T00:07:01.999Z,88339.00
2022-12-22T00:08:01.970Z,88333.00
2022-12-22T00:09:05.440Z,88327.00
2022-12-22T00:10:01.951Z,88324.00
2022-12-22T00:11:01.958Z,88335.00
2022-12-22T00:12:01.915Z,88341.00
2022-12-22T00:13:01.959Z,88333.00
2022-12-22T00:14:01.866Z,88331.00
2022-12-22T00:15:01.873Z,88331.00
2022-12-22T00:16:01.835Z,88333.00
2022-12-22T00:17:02.299Z,88331.00
2022-12-22T00:18:01.797Z,88329.00
2022-12-22T00:19:02.668Z,88329.00
2022-12-22T00:20:01.818Z,88329.00
2022-12-22T00:21:02.699Z,88329.00
2022-12-22T00:22:01.731Z,88327.00
2022-12-22T00:23:01.776Z,88326.00
2022-12-22T00:24:01.741Z,88324.00
2022-12-22T00:25:01.597Z,88320.00
2022-12-22T00:26:01.597Z,88320.00
2022-12-22T00:27:01.560Z,88310.00
2022-12-22T00:28:01.536Z,88310.00
2022-12-22T00:29:01.497Z,88316.00
2022-12-22T00:30:01.476Z,88308.00
2022-12-22T00:31:01.463Z,88312.00
2022-12-22T00:32:01.387Z,88304.00
2022-12-22T00:33:01.381Z,88306.00
2022-12-22T00:34:01.342Z,88308.00
2022-12-22T00:35:01.300Z,88312.00
2022-12-22T00:36:01.266Z,88312.00
2022-12-22T00:37:01.273Z,88312.00
2022-12-22T00:38:01.204Z,88310.00
2022-12-22T00:39:01.162Z,88310.00
2022-12-22T00:40:01.142Z,88306.00
2022-12-22T00:41:01.135Z,88302.00
2022-12-22T00:42:01.074Z,88310.00
2022-12-22T00:43:01.220Z,88310.00
2022-12-22T00:44:01.072Z,88302.00
2022-12-22T00:45:01.111Z,88308.00
2022-12-22T00:46:01.138Z,88306.00
2022-12-22T00:47:01.056Z,88308.00
2022-12-22T00:48:00.857Z,88306.00
2022-12-22T00:49:00.805Z,88304.00
2022-12-22T00:50:00.777Z,88308.00
2022-12-22T00:51:00.736Z,88308.00
2022-12-22T00:52:00.712Z,88312.00
2022-12-22T00:53:00.747Z,88310.00
2022-12-22T00:54:00.603Z,88312.00
2022-12-22T00:55:00.571Z,88312.00
2022-12-22T00:56:00.542Z,88306.00
2022-12-22T00:57:00.507Z,88306.00
2022-12-22T00:58:00.453Z,88312.00
2022-12-22T00:59:00.420Z,88308.00
2022-12-22T01:00:00.338Z,88312.00
2022-12-22T01:01:00.346Z,88314.00
2022-12-22T01:02:00.453Z,88306.00
2022-12-22T01:03:00.384Z,88312.00
2022-12-22T01:04:00.166Z,88312.00
2022-12-22T01:05:00.185Z,88308.00
2022-12-22T01:06:00.224Z,88310.00
2022-12-22T01:07:00.056Z,88304.00
2022-12-22T01:08:00.055Z,88308.00
2022-12-22T01:09:00.024Z,88306.00
2022-12-22T01:09:59.977Z,88310.00
2022-12-22T01:10:59.922Z,88302.00
2022-12-22T01:11:59.910Z,88298.00
2022-12-22T01:12:59.879Z,88296.00
2022-12-22T01:13:59.824Z,88294.00
2022-12-22T01:14:59.814Z,88294.00
2022-12-22T01:15:59.796Z,88284.00
2022-12-22T01:16:59.718Z,88292.00
2022-12-22T01:17:59.691Z,88292.00
2022-12-22T01:18:59.709Z,88292.00
2022-12-22T01:19:59.626Z,88294.00
2022-12-22T01:20:59.588Z,88288.00
2022-12-22T01:21:59.553Z,88296.00
2022-12-22T01:22:59.491Z,88298.00
2022-12-22T01:23:59.471Z,88298.00
2022-12-22T01:24:59.440Z,88298.00
2022-12-22T01:25:59.388Z,88296.00
2022-12-22T01:26:59.324Z,88296.00
2022-12-22T01:27:59.295Z,88294.00
2022-12-22T01:28:59.240Z,88290.00
2022-12-22T01:29:59.191Z,88288.00
2022-12-22T01:30:59.233Z,88288.00
2022-12-22T01:31:59.091Z,88282.00
2022-12-22T01:32:59.056Z,88290.00
2022-12-22T01:33:59.069Z,88294.00
2022-12-22T01:34:58.983Z,88292.00
2022-12-22T01:35:58.942Z,88296.00
2022-12-22T01:36:58.903Z,88294.00
2022-12-22T01:37:58.884Z,88292.00
2022-12-22T01:38:58.870Z,88290.00
2022-12-22T01:39:58.812Z,88294.00
2022-12-22T01:40:58.782Z,88292.00
2022-12-22T01:41:58.767Z,88290.00
2022-12-22T01:42:58.732Z,88286.00
2022-12-22T01:43:58.687Z,88296.00
2022-12-22T01:44:58.640Z,88290.00
2022-12-22T01:45:58.628Z,88296.00
2022-12-22T01:46:58.561Z,88288.00
2022-12-22T01:47:58.534Z,88292.00
2022-12-22T01:48:58.465Z,88286.00
2022-12-22T01:49:58.407Z,88286.00
2022-12-22T01:50:58.368Z,88290.00
2022-12-22T01:51:58.319Z,88288.00
2022-12-22T01:52:58.277Z,88280.00
2022-12-22T01:53:58.243Z,88290.00
2022-12-22T01:54:58.205Z,88279.00
2022-12-22T01:55:58.151Z,88279.00
2022-12-22T01:56:58.111Z,88279.00
2022-12-22T01:57:58.070Z,88280.00
2022-12-22T01:58:58.028Z,88279.00
2022-12-22T01:59:57.981Z,88282.00
2022-12-22T02:00:57.914Z,88280.00
2022-12-22T02:01:58.000Z,88279.00
2022-12-22T02:02:58.741Z,88280.00
2022-12-22T02:03:58.260Z,88282.00
2022-12-22T02:04:57.850Z,88280.00
2022-12-22T02:05:57.671Z,88279.00
2022-12-22T02:07:00.316Z,88282.00
2022-12-22T02:07:57.484Z,88282.00
2022-12-22T02:08:57.428Z,88280.00
2022-12-22T02:09:57.360Z,88279.00
2022-12-22T02:10:57.303Z,88280.00
2022-12-22T02:11:57.262Z,88277.00
2022-12-22T02:12:57.231Z,88273.00
2022-12-22T02:13:57.149Z,88271.00
2022-12-22T02:14:57.100Z,88275.00
2022-12-22T02:15:57.149Z,88267.00
2022-12-22T02:16:57.050Z,88265.00
2022-12-22T02:17:57.071Z,88267.00
2022-12-22T02:18:56.964Z,88259.00
2022-12-22T02:19:56.940Z,88269.00
2022-12-22T02:20:56.912Z,88257.00
2022-12-22T02:21:56.872Z,88251.00
2022-12-22T02:22:56.831Z,88261.00
2022-12-22T02:23:56.801Z,88261.00
2022-12-22T02:24:56.756Z,88261.00
2022-12-22T02:25:56.749Z,88263.00
2022-12-22T02:26:56.716Z,88261.00
2022-12-22T02:27:56.686Z,88267.00
2022-12-22T02:28:56.669Z,88267.00
2022-12-22T02:29:56.639Z,88263.00
2022-12-22T02:30:56.625Z,88269.00
2022-12-22T02:31:56.620Z,88273.00
2022-12-22T02:32:56.567Z,88267.00
2022-12-22T02:33:56.569Z,88273.00
2022-12-22T02:34:56.551Z,88275.00
2022-12-22T02:35:56.515Z,88273.00
2022-12-22T02:36:56.504Z,88275.00
2022-12-22T02:37:56.507Z,88279.00
2022-12-22T02:38:56.469Z,88275.00
2022-12-22T02:39:56.493Z,88273.00
2022-12-22T02:40:56.420Z,88271.00
2022-12-22T02:41:56.428Z,88275.00
2022-12-22T02:42:56.387Z,88269.00
2022-12-22T02:43:56.370Z,88271.00
2022-12-22T02:44:56.344Z,88271.00
2022-12-22T02:45:56.348Z,88269.00
2022-12-22T02:46:56.315Z,88271.00
2022-12-22T02:47:56.250Z,88267.00
2022-12-22T02:48:56.232Z,88267.00
2022-12-22T02:49:56.199Z,88273.00
2022-12-22T02:50:56.154Z,88275.00
2022-12-22T02:51:56.098Z,88275.00
2022-12-22T02:52:56.065Z,88273.00
2022-12-22T02:53:56.023Z,88271.00
2022-12-22T02:54:55.983Z,88273.00
2022-12-22T02:55:55.938Z,88271.00
2022-12-22T02:56:55.902Z,88273.00
2022-12-22T02:57:55.856Z,88271.00
2022-12-22T02:58:55.860Z,88269.00
2022-12-22T02:59:55.767Z,88261.00
2022-12-22T03:00:55.706Z,88265.00
2022-12-22T03:01:55.811Z,88265.00
2022-12-22T03:02:55.829Z,88265.00
2022-12-22T03:03:55.705Z,88259.00
2022-12-22T03:04:55.565Z,88259.00
2022-12-22T03:05:55.508Z,88257.00
2022-12-22T03:06:55.456Z,88261.00
2022-12-22T03:07:55.420Z,88263.00
2022-12-22T03:08:55.385Z,88261.00
2022-12-22T03:09:55.343Z,88263.00
2022-12-22T03:10:55.331Z,88265.00
2022-12-22T03:11:55.324Z,88267.00
2022-12-22T03:12:55.241Z,88265.00
2022-12-22T03:13:55.232Z,88261.00
2022-12-22T03:14:55.204Z,88263.00
2022-12-22T03:15:55.224Z,88263.00
2022-12-22T03:16:55.169Z,88261.00
2022-12-22T03:17:55.120Z,88257.00
2022-12-22T03:18:55.101Z,88251.00
2022-12-22T03:19:55.081Z,88255.00
2022-12-22T03:20:55.037Z,88259.00
2022-12-22T03:21:55.047Z,88255.00
2022-12-22T03:22:55.005Z,88255.00
2022-12-22T03:23:54.961Z,88263.00
2022-12-22T03:24:54.951Z,88263.00
2022-12-22T03:25:54.958Z,88269.00
2022-12-22T03:26:54.908Z,88267.00
2022-12-22T03:27:54.880Z,88273.00
2022-12-22T03:28:54.854Z,88269.00
2022-12-22T03:29:54.818Z,88269.00
2022-12-22T03:30:54.797Z,88271.00
2022-12-22T04:32:52.517Z,88220.00
2022-12-22T04:33:52.493Z,88218.00
2022-12-22T04:34:52.460Z,88222.00
2022-12-22T04:35:52.434Z,88222.00
2022-12-22T04:36:52.429Z,88228.00
2022-12-22T04:37:52.390Z,88226.00
2022-12-22T04:38:52.349Z,88226.00
2022-12-22T04:39:52.326Z,88220.00
2022-12-22T04:40:52.305Z,88222.00
2022-12-22T04:41:52.280Z,88212.00
2022-12-22T04:42:52.273Z,88212.00
2022-12-22T04:43:52.253Z,88209.00
2022-12-22T04:44:52.248Z,88214.00
2022-12-22T04:45:52.262Z,88207.00
2022-12-22T04:46:52.196Z,88205.00
2022-12-22T04:47:52.171Z,88201.00
2022-12-22T04:48:57.873Z,88197.00
2022-12-22T04:49:53.134Z,88195.00
2022-12-22T04:50:52.116Z,88197.00
2022-12-22T04:51:52.098Z,88191.00
2022-12-22T04:52:52.096Z,88191.00
2022-12-22T04:53:52.703Z,88183.00
2022-12-22T04:54:52.718Z,88191.00
2022-12-22T04:55:52.206Z,88185.00
2022-12-22T04:56:52.706Z,88187.00
2022-12-22T04:57:52.068Z,88191.00
2022-12-22T04:58:52.030Z,88185.00
2022-12-22T04:59:52.063Z,88193.00
2022-12-22T05:00:51.918Z,88189.00
2022-12-22T05:01:51.957Z,88183.00
2022-12-22T05:02:51.955Z,88175.00
2022-12-22T05:03:51.898Z,88177.00
2022-12-22T05:04:51.695Z,88175.00
2022-12-22T05:05:51.672Z,88173.00
2022-12-22T05:06:51.621Z,88173.00
2022-12-22T05:07:51.565Z,88169.00
2022-12-22T05:08:51.557Z,88171.00
2022-12-22T05:09:52.195Z,88175.00
2022-12-22T05:10:51.701Z,88177.00
2022-12-22T05:11:51.721Z,88185.00
2022-12-22T05:12:51.547Z,88195.00
2022-12-22T05:13:52.205Z,88199.00
2022-12-22T05:14:51.452Z,88191.00
2022-12-22T05:15:51.279Z,88181.00
2022-12-22T05:16:51.327Z,88183.00
2022-12-22T05:17:51.222Z,88175.00
2022-12-22T05:18:51.167Z,88175.00
2022-12-22T05:19:51.126Z,88179.00
2022-12-22T05:20:51.093Z,88175.00
2022-12-22T05:21:51.053Z,88185.00
2022-12-22T05:22:51.030Z,88189.00
2022-12-22T05:23:51.044Z,88187.00
2022-12-22T05:24:50.942Z,88189.00
2022-12-22T05:25:50.903Z,88187.00
2022-12-22T05:26:50.873Z,88181.00
2022-12-22T05:27:50.846Z,88181.00
2022-12-22T05:28:50.816Z,88177.00
2022-12-22T05:29:50.776Z,88179.00
2022-12-22T05:30:50.799Z,88177.00
2022-12-22T05:31:50.694Z,88179.00
2022-12-22T05:32:50.655Z,88179.00
2022-12-22T05:33:50.625Z,88179.00
2022-12-22T05:34:50.555Z,88181.00
2022-12-22T05:35:50.541Z,88179.00
2022-12-22T05:36:50.480Z,88183.00
2022-12-22T05:37:50.476Z,88183.00
2022-12-22T05:38:50.429Z,88181.00
2022-12-22T05:39:50.391Z,88175.00
2022-12-22T05:40:50.357Z,88183.00
2022-12-22T05:41:50.324Z,88183.00
2022-12-22T05:42:50.309Z,88187.00
2022-12-22T05:43:50.295Z,88185.00
2022-12-22T05:44:50.238Z,88181.00
2022-12-22T05:45:50.281Z,88183.00
2022-12-22T05:46:50.179Z,88181.00
2022-12-22T05:47:50.145Z,88177.00
2022-12-22T05:48:50.151Z,88177.00
2022-12-22T05:49:50.091Z,88181.00
2022-12-22T05:50:50.077Z,88183.00
2022-12-22T05:51:50.061Z,88181.00
2022-12-22T05:52:50.003Z,88183.00
2022-12-22T05:53:49.969Z,88175.00
2022-12-22T05:54:49.935Z,88179.00
2022-12-22T05:55:49.898Z,88187.00
2022-12-22T05:56:49.885Z,88179.00
2022-12-22T05:57:49.833Z,88179.00
2022-12-22T05:58:49.807Z,88179.00
2022-12-22T05:59:49.776Z,88175.00
2022-12-22T06:00:49.715Z,88171.00
2022-12-22T06:01:49.772Z,88175.00
2022-12-22T06:02:49.822Z,88175.00
2022-12-22T06:03:53.261Z,88169.00
2022-12-22T06:04:50.613Z,88173.00
2022-12-22T06:05:49.593Z,88175.00
2022-12-22T06:06:49.515Z,88177.00
2022-12-22T06:07:49.474Z,88173.00
2022-12-22T06:08:49.429Z,88177.00
2022-12-22T06:09:49.384Z,88175.00
2022-12-22T06:10:49.355Z,88177.00
2022-12-22T06:11:49.260Z,88175.00
2022-12-22T06:12:49.224Z,88169.00
2022-12-22T06:13:49.175Z,88164.00
2022-12-22T06:14:49.147Z,88162.00
2022-12-22T06:15:49.128Z,88158.00
2022-12-22T06:16:49.048Z,88160.00
2022-12-22T06:17:49.057Z,88156.00
2022-12-22T06:18:48.991Z,88154.00
2022-12-22T06:19:48.952Z,88156.00
2022-12-22T06:20:48.937Z,88156.00
2022-12-22T06:21:48.885Z,88164.00
2022-12-22T06:22:48.858Z,88167.00
2022-12-22T06:23:48.786Z,88169.00
2022-12-22T06:24:48.748Z,88169.00
2022-12-22T06:25:48.695Z,88165.00
2022-12-22T06:26:48.645Z,88160.00
2022-12-22T06:27:48.594Z,88162.00
2022-12-22T06:28:48.592Z,88164.00
2022-12-22T06:29:48.484Z,88165.00
2022-12-22T06:30:48.501Z,88167.00
2022-12-22T06:31:48.461Z,88171.00
2022-12-22T06:32:48.381Z,88177.00
2022-12-22T06:33:48.314Z,88165.00
2022-12-22T06:34:48.286Z,88164.00
2022-12-22T06:35:53.676Z,88169.00
2022-12-22T06:36:49.295Z,88165.00
2022-12-22T06:37:48.178Z,88165.00
2022-12-22T06:38:48.458Z,88164.00
2022-12-22T06:39:48.121Z,88158.00
2022-12-22T06:40:48.099Z,88164.00
2022-12-22T06:41:48.052Z,88156.00
2022-12-22T06:42:48.037Z,88158.00
2022-12-22T06:43:48.029Z,88162.00
2022-12-22T06:44:47.982Z,88167.00
2022-12-22T06:45:48.028Z,88167.00
2022-12-22T06:46:48.051Z,88162.00
2022-12-22T06:47:48.087Z,88173.00
2022-12-22T06:48:47.767Z,88171.00
2022-12-22T06:49:47.719Z,88175.00
2022-12-22T06:50:47.681Z,88171.00
2022-12-22T06:51:47.645Z,88164.00
2022-12-22T06:52:47.598Z,88167.00
2022-12-22T06:53:47.561Z,88167.00
2022-12-22T06:54:47.515Z,88173.00
2022-12-22T06:55:47.476Z,88167.00
2022-12-22T06:56:47.463Z,88169.00
2022-12-22T06:57:47.387Z,88181.00
2022-12-22T06:58:47.358Z,88175.00
2022-12-22T06:59:50.884Z,88183.00
2022-12-22T07:00:48.373Z,88181.00
2022-12-22T07:01:47.342Z,88177.00
2022-12-22T07:02:47.464Z,88177.00
2022-12-22T07:03:47.252Z,88185.00
2022-12-22T07:04:47.188Z,88183.00
2022-12-22T07:05:47.177Z,88187.00
2022-12-22T07:06:47.118Z,88183.00
2022-12-22T07:07:47.084Z,88171.00
2022-12-22T07:08:47.030Z,88187.00
2022-12-22T07:09:46.994Z,88189.00
2022-12-22T07:10:46.969Z,88187.00
2022-12-22T07:11:46.930Z,88189.00
2022-12-22T07:12:46.982Z,88187.00
2022-12-22T07:13:46.890Z,88193.00
2022-12-22T07:14:46.821Z,88199.00
2022-12-22T07:15:46.837Z,88197.00
2022-12-22T07:16:46.781Z,88199.00
2022-12-22T07:17:46.686Z,88193.00
2022-12-22T07:18:46.632Z,88199.00
2022-12-22T07:19:46.562Z,88205.00
2022-12-22T07:20:46.525Z,88203.00
2022-12-22T07:21:46.485Z,88197.00
2022-12-22T07:22:46.458Z,88199.00
2022-12-22T07:23:46.395Z,88201.00
2022-12-22T07:24:46.416Z,88201.00
2022-12-22T07:25:46.347Z,88203.00
2022-12-22T07:26:46.267Z,88211.00
2022-12-22T07:27:46.233Z,88218.00
2022-12-22T07:28:46.237Z,88216.00
2022-12-22T07:29:46.169Z,88216.00
2022-12-22T07:30:46.114Z,88214.00
2022-12-22T07:31:46.139Z,88216.00
2022-12-22T07:32:46.038Z,88220.00
2022-12-22T07:33:46.007Z,88226.00
2022-12-22T07:34:45.964Z,88230.00
2022-12-22T07:35:45.952Z,88234.00
2022-12-22T07:36:45.894Z,88241.00
2022-12-22T07:37:45.814Z,88247.00
2022-12-22T07:38:45.788Z,88251.00
2022-12-22T07:39:45.748Z,88247.00
2022-12-22T07:40:51.048Z,88245.00
2022-12-22T07:41:46.676Z,88249.00
2022-12-22T07:42:45.649Z,88251.00
2022-12-22T07:43:45.612Z,88251.00
2022-12-22T07:44:45.577Z,88243.00
2022-12-22T07:45:45.509Z,88249.00
2022-12-22T07:46:45.574Z,88245.00
2022-12-22T07:47:45.421Z,88245.00
2022-12-22T07:48:45.417Z,88241.00
2022-12-22T07:49:45.353Z,88247.00
2022-12-22T07:50:45.280Z,88241.00
2022-12-22T07:51:45.206Z,88245.00
2022-12-22T07:52:45.174Z,88245.00
2022-12-22T07:53:45.123Z,88234.00
2022-12-22T07:54:45.108Z,88234.00
2022-12-22T07:55:45.125Z,88232.00
2022-12-22T07:56:45.058Z,88241.00
2022-12-22T07:57:45.043Z,88241.00
2022-12-22T07:58:44.948Z,88241.00
2022-12-22T07:59:44.912Z,88241.00
2022-12-22T08:00:44.826Z,88241.00
2022-12-22T08:01:44.874Z,88241.00
2022-12-22T08:39:42.787Z,88259.00
2022-12-22T08:40:42.685Z,88253.00
2022-12-22T08:41:42.597Z,88249.00
2022-12-22T08:42:42.528Z,88249.00
2022-12-22T08:43:42.471Z,88245.00
2022-12-22T08:44:42.715Z,88234.00
2022-12-22T08:45:42.432Z,88243.00
2022-12-22T08:46:42.435Z,88245.00
2022-12-22T08:47:42.437Z,88247.00
2022-12-22T08:48:42.125Z,88243.00
2022-12-22T08:49:42.064Z,88234.00
2022-12-22T08:50:41.997Z,88243.00
2022-12-22T08:51:41.935Z,88241.00
2022-12-22T08:52:41.876Z,88232.00
2022-12-22T08:54:06.799Z,88232.00
2022-12-22T08:54:42.741Z,88245.00
2022-12-22T08:55:42.275Z,88234.00
2022-12-22T08:56:41.671Z,88234.00
2022-12-22T08:58:41.456Z,88232.00
2022-12-22T08:59:41.371Z,88232.00
2022-12-22T09:00:41.313Z,88230.00
2022-12-22T09:01:41.444Z,88230.00
2022-12-22T09:02:41.302Z,88232.00
2022-12-22T09:03:41.130Z,88232.00
2022-12-22T09:04:41.032Z,88230.00
2022-12-22T09:05:40.963Z,88226.00
2022-12-22T09:06:41.558Z,88226.00
2022-12-22T09:07:40.835Z,88232.00
2022-12-22T09:08:40.794Z,88232.00
2022-12-22T09:09:40.724Z,88232.00
2022-12-22T09:10:40.615Z,88234.00
2022-12-22T09:11:40.545Z,88241.00
2022-12-22T09:12:40.511Z,88241.00
2022-12-22T09:13:40.451Z,88243.00
2022-12-22T09:14:40.381Z,88243.00
2022-12-22T09:15:40.266Z,88247.00
2022-12-22T09:16:40.358Z,88243.00
2022-12-22T09:17:40.140Z,88251.00
2022-12-22T09:18:40.120Z,88255.00
2022-12-22T09:19:40.038Z,88257.00
2022-12-22T10:00:37.167Z,88234.00
2022-12-22T10:01:37.229Z,88247.00
2022-12-22T10:02:37.239Z,88247.00
2022-12-22T10:03:37.119Z,88249.00
2022-12-22T10:04:37.021Z,88247.00
2022-12-22T10:05:37.001Z,88247.00
2022-12-22T10:06:37.155Z,88245.00
2022-12-22T10:10:36.951Z,88232.00
2022-12-22T10:30:36.568Z,88216.00
2022-12-22T10:31:36.587Z,88209.00
2022-12-22T10:32:36.566Z,88205.00
2022-12-22T10:33:41.237Z,88205.00
2022-12-22T10:34:37.452Z,88212.00
2022-12-22T10:35:36.547Z,88211.00
2022-12-22T10:36:36.343Z,88207.00
2022-12-22T10:37:36.286Z,88207.00
2022-12-22T10:38:36.212Z,88197.00
2022-12-22T10:39:36.149Z,88195.00
2022-12-22T10:40:36.091Z,88193.00
2022-12-22T10:41:36.039Z,88197.00
2022-12-22T10:42:36.126Z,88197.00
2022-12-22T10:43:35.892Z,88199.00
2022-12-22T10:44:36.277Z,88191.00
2022-12-22T10:45:35.769Z,88187.00
2022-12-22T10:46:35.768Z,88191.00
2022-12-22T10:47:35.607Z,88189.00
2022-12-22T10:48:35.566Z,88195.00
2022-12-22T10:50:43.784Z,88193.00
2022-12-22T10:51:43.733Z,88183.00
2022-12-22T10:52:43.702Z,88179.00
2022-12-22T10:53:43.673Z,88181.00
2022-12-22T10:54:43.675Z,88185.00
2022-12-22T10:55:43.621Z,88189.00
2022-12-22T10:56:43.590Z,88187.00
2022-12-22T10:57:43.581Z,88179.00
2022-12-22T10:58:43.552Z,88171.00
2022-12-22T10:59:43.558Z,88175.00
2022-12-22T11:00:43.463Z,88183.00
2022-12-22T11:01:43.522Z,88179.00
2022-12-22T11:02:43.462Z,88171.00
2022-12-22T11:03:43.464Z,88167.00
2022-12-22T11:04:43.498Z,88160.00
2022-12-22T11:05:43.353Z,88162.00
2022-12-22T11:06:43.337Z,88160.00
2022-12-22T11:07:43.338Z,88150.00
2022-12-22T11:08:50.889Z,88146.00
2022-12-22T11:09:44.268Z,88140.00
2022-12-22T11:10:43.222Z,88146.00
2022-12-22T11:11:43.289Z,88140.00
2022-12-22T11:12:43.163Z,88144.00
2022-12-22T11:13:43.190Z,88156.00
2022-12-22T11:14:43.095Z,88148.00
2022-12-22T11:15:43.052Z,88144.00
2022-12-22T11:16:43.250Z,88142.00
2022-12-22T11:17:43.182Z,88146.00
2022-12-22T11:18:42.966Z,88150.00
2022-12-22T11:19:42.877Z,88144.00
2022-12-22T11:20:42.795Z,88130.00
2022-12-22T11:21:42.778Z,88128.00
2022-12-22T11:22:43.243Z,88132.00
2022-12-22T11:23:43.209Z,88138.00
2022-12-22T11:24:42.721Z,88142.00
2022-12-22T11:25:44.221Z,88146.00
2022-12-22T11:26:42.796Z,88144.00
2022-12-22T11:27:45.878Z,88140.00
2022-12-22T11:28:42.253Z,88136.00
2022-12-22T11:29:42.194Z,88136.00
2022-12-22T11:30:42.186Z,88132.00
2022-12-22T11:31:42.116Z,88128.00
2022-12-22T11:33:42.203Z,88136.00
2022-12-22T11:34:42.148Z,88122.00
2022-12-22T11:35:42.077Z,88126.00
2022-12-22T11:36:42.136Z,88124.00
2022-12-22T11:37:41.916Z,88116.00
2022-12-22T11:38:41.885Z,88109.00
2022-12-22T11:39:42.816Z,88105.00
2022-12-22T11:40:41.729Z,88107.00
2022-12-22T11:41:41.660Z,88116.00
2022-12-22T11:42:41.576Z,88124.00
2022-12-22T11:44:41.430Z,88124.00
2022-12-22T11:45:43.684Z,88114.00
2022-12-22T11:46:41.386Z,88109.00
2022-12-22T11:47:41.288Z,88105.00
2022-12-22T11:48:41.161Z,88110.00
2022-12-22T11:49:41.099Z,88110.00
2022-12-22T11:51:07.571Z,88120.00
2022-12-22T11:51:42.022Z,88118.00
2022-12-22T11:52:40.896Z,88114.00
2022-12-22T11:53:40.818Z,88114.00
2022-12-22T11:54:40.775Z,88103.00
2022-12-22T11:55:40.714Z,88097.00
2022-12-22T11:56:40.637Z,88085.00
2022-12-22T11:57:40.581Z,88087.00
2022-12-22T11:58:40.526Z,88081.00
2022-12-22T11:59:40.444Z,88081.00
2022-12-22T12:01:12.182Z,88079.00
2022-12-22T12:01:41.578Z,88071.00
2022-12-22T12:02:40.346Z,88073.00
2022-12-22T12:03:40.268Z,88079.00
2022-12-22T12:04:40.166Z,88077.00
2022-12-22T12:05:40.087Z,88067.00
2022-12-22T12:06:40.057Z,88073.00
2022-12-22T12:07:40.001Z,88075.00
2022-12-22T12:08:39.946Z,88063.00
2022-12-22T12:09:39.892Z,88065.00
2022-12-22T12:10:39.837Z,88065.00
2022-12-22T12:11:39.795Z,88067.00
2022-12-22T12:12:39.706Z,88071.00
2022-12-22T12:13:39.720Z,88063.00
2022-12-22T12:14:39.644Z,88067.00
2022-12-22T12:15:39.566Z,88063.00
2022-12-22T12:16:39.656Z,88060.00
2022-12-22T12:17:39.415Z,88060.00
2022-12-22T12:18:39.480Z,88063.00
2022-12-22T12:19:39.356Z,88060.00
2022-12-22T12:20:39.292Z,88065.00
2022-12-22T12:21:39.204Z,88065.00
2022-12-22T12:22:39.162Z,88067.00
2022-12-22T12:23:39.104Z,88071.00
2022-12-22T12:24:39.073Z,88069.00
2022-12-22T12:25:39.007Z,88071.00
2022-12-22T12:26:38.906Z,88073.00
2022-12-22T12:27:38.837Z,88083.00
2022-12-22T12:28:38.839Z,88087.00
2022-12-22T12:29:38.688Z,88085.00
2022-12-22T12:30:39.511Z,88077.00
2022-12-22T12:31:38.673Z,88077.00
2022-12-22T12:32:38.505Z,88073.00
2022-12-22T12:33:38.474Z,88067.00
2022-12-22T12:34:38.404Z,88075.00
2022-12-22T12:35:38.325Z,88079.00
2022-12-22T12:36:38.310Z,88075.00
2022-12-22T12:37:38.737Z,88083.00
2022-12-22T12:39:08.064Z,88077.00
2022-12-22T12:39:39.159Z,88073.00
2022-12-22T12:40:38.309Z,88071.00
2022-12-22T12:41:38.099Z,88073.00
2022-12-22T12:42:37.968Z,88079.00
2022-12-22T12:43:37.913Z,88073.00
2022-12-22T12:44:37.880Z,88077.00
2022-12-22T12:45:37.879Z,88075.00
2022-12-22T12:46:37.889Z,88073.00
2022-12-22T12:47:37.872Z,88073.00
2022-12-22T12:48:40.068Z,88079.00
2022-12-22T12:49:38.384Z,88073.00
2022-12-22T12:50:37.788Z,88079.00
2022-12-22T12:51:37.717Z,88087.00
2022-12-22T12:52:37.666Z,88087.00
2022-12-22T12:53:37.602Z,88089.00
2022-12-22T12:54:37.558Z,88083.00
2022-12-22T12:55:37.516Z,88087.00
2022-12-22T12:56:37.449Z,88091.00
2022-12-22T12:57:37.421Z,88099.00
2022-12-22T12:58:37.414Z,88101.00
2022-12-22T12:59:37.387Z,88105.00
2022-12-22T13:00:43.184Z,88109.00
2022-12-22T13:01:38.441Z,88109.00
2022-12-22T13:02:37.430Z,88110.00
2022-12-22T13:04:02.696Z,88107.00
2022-12-22T13:04:38.267Z,88110.00
2022-12-22T13:05:37.100Z,88114.00
2022-12-22T13:06:37.082Z,88120.00
2022-12-22T13:07:36.992Z,88120.00
2022-12-22T13:08:36.924Z,88126.00
2022-12-22T13:09:50.639Z,88124.00
2022-12-22T13:10:37.808Z,88122.00
2022-12-22T13:12:11.188Z,88126.00
2022-12-22T13:12:37.673Z,88134.00
2022-12-22T13:13:36.660Z,88136.00
2022-12-22T13:14:36.550Z,88132.00
2022-12-22T13:15:36.496Z,88136.00
2022-12-22T13:16:36.471Z,88138.00
2022-12-22T13:17:36.415Z,88138.00
2022-12-22T13:18:36.326Z,88134.00
2022-12-22T13:19:36.250Z,88140.00
2022-12-22T13:20:36.208Z,88134.00
2022-12-22T13:21:52.912Z,88136.00
2022-12-22T13:22:37.068Z,88140.00
2022-12-22T13:23:51.385Z,88138.00
2022-12-22T13:24:36.941Z,88140.00
2022-12-22T13:25:35.903Z,88146.00
2022-12-22T13:26:35.858Z,88150.00
2022-12-22T13:27:35.801Z,88156.00
2022-12-22T13:28:35.746Z,88154.00
2022-12-22T13:29:35.695Z,88156.00
2022-12-22T13:30:35.634Z,88154.00
2022-12-22T13:31:35.613Z,88152.00
2022-12-22T13:32:35.576Z,88154.00
2022-12-22T13:33:35.437Z,88150.00
2022-12-22T13:34:42.215Z,88150.00
2022-12-22T13:35:41.389Z,88146.00
2022-12-22T13:36:36.237Z,88150.00
2022-12-22T13:37:35.182Z,88150.00
2022-12-22T13:38:35.122Z,88150.00
2022-12-22T13:39:35.042Z,88154.00
2022-12-22T13:40:34.984Z,88150.00
2022-12-22T13:41:34.982Z,88146.00
2022-12-22T13:42:34.886Z,88144.00
2022-12-22T13:43:34.712Z,88142.00
2022-12-22T13:44:34.621Z,88142.00
2022-12-22T13:45:34.560Z,88140.00
2022-12-22T13:46:34.528Z,88132.00
2022-12-22T13:47:34.362Z,88128.00
2022-12-22T13:48:41.592Z,88124.00
2022-12-22T13:50:07.129Z,88120.00
2022-12-22T13:50:35.098Z,88114.00
2022-12-22T13:51:34.014Z,88114.00
2022-12-22T13:52:33.926Z,88112.00
2022-12-22T13:54:33.726Z,88120.00
2022-12-22T13:55:33.651Z,88130.00
2022-12-22T13:56:33.571Z,88136.00
2022-12-22T13:57:33.475Z,88138.00
2022-12-22T13:58:33.441Z,88136.00
2022-12-22T13:59:33.349Z,88138.00
2022-12-22T14:00:33.388Z,88132.00
2022-12-22T14:01:33.366Z,88140.00
2022-12-22T14:02:33.396Z,88142.00
2022-12-22T14:03:58.762Z,88144.00
2022-12-22T14:04:34.155Z,88140.00
2022-12-22T14:05:33.070Z,88144.00
2022-12-22T14:06:32.935Z,88146.00
2022-12-22T14:07:32.873Z,88150.00
2022-12-22T14:08:32.806Z,88152.00
2022-12-22T14:09:32.737Z,88150.00
2022-12-22T14:10:32.774Z,88146.00
2022-12-22T14:11:32.720Z,88146.00
2022-12-22T14:12:32.724Z,88146.00
2022-12-22T14:16:33.298Z,88150.00
2022-12-22T14:32:31.159Z,88179.00
2022-12-22T14:33:31.103Z,88177.00
2022-12-22T14:34:31.034Z,88171.00
2022-12-22T14:35:30.943Z,88173.00
2022-12-22T14:36:30.888Z,88173.00
2022-12-22T14:37:33.072Z,88173.00
2022-12-22T14:38:30.809Z,88173.00
2022-12-22T14:39:30.790Z,88173.00
2022-12-22T14:40:30.661Z,88173.00
2022-12-22T14:41:30.599Z,88171.00
2022-12-22T14:42:30.522Z,88167.00
2022-12-22T14:43:30.459Z,88173.00
2022-12-22T14:44:30.415Z,88175.00
2022-12-22T14:45:30.424Z,88175.00
2022-12-22T14:46:36.790Z,88177.00